createdAt,value
2022-09-23T00:02:51.530Z,81
2022-09-23T00:06:16.875Z,81
2022-09-23T00:09:42.193Z,81
2022-09-23T00:13:07.552Z,82
2022-09-23T00:16:33.215Z,82
2022-09-23T00:19:58.322Z,81
2022-09-23T00:23:23.716Z,81
2022-09-23T00:26:49.854Z,82
2022-09-23T00:30:15.248Z,81
2022-09-23T00:33:40.630Z,81
2022-09-23T00:37:05.938Z,82
2022-09-23T00:40:31.325Z,82
2022-09-23T00:43:56.624Z,81
2022-09-23T00:47:22.009Z,81
2022-09-23T00:50:47.416Z,81
2022-09-23T00:54:12.686Z,81
2022-09-23T00:57:38.095Z,81
2022-09-23T01:01:03.540Z,82
2022-09-23T01:04:28.836Z,81
2022-09-23T01:07:54.752Z,81
2022-09-23T01:11:20.069Z,81
2022-09-23T01:14:45.388Z,82
2022-09-23T01:18:10.758Z,82
2022-09-23T01:21:36.132Z,82
2022-09-23T01:25:01.553Z,82
2022-09-23T01:28:26.897Z,81
2022-09-23T01:31:52.235Z,81
2022-09-23T01:35:18.479Z,82
2022-09-23T01:38:43.867Z,82
2022-09-23T01:42:09.291Z,82
2022-09-23T01:45:34.592Z,82
2022-09-23T01:48:59.927Z,82
2022-09-23T01:52:25.277Z,82
2022-09-23T01:55:50.688Z,82
2022-09-23T01:59:16.125Z,82
2022-09-23T02:02:41.526Z,81
2022-09-23T02:06:06.744Z,82
2022-09-23T02:09:32.056Z,82
2022-09-23T02:12:57.416Z,82
2022-09-23T02:16:22.835Z,82
2022-09-23T02:19:48.128Z,81
2022-09-23T02:23:13.444Z,82
2022-09-23T02:26:38.816Z,82
2022-09-23T02:30:04.169Z,83
2022-09-23T02:33:29.566Z,82
2022-09-23T02:36:54.867Z,82
2022-09-23T02:40:20.282Z,82
2022-09-23T02:43:45.566Z,82
2022-09-23T02:47:10.903Z,82
2022-09-23T02:50:36.234Z,82
2022-09-23T02:54:01.604Z,82
2022-09-23T02:57:27.844Z,82
2022-09-23T03:00:53.220Z,82
2022-09-23T03:04:18.605Z,82
2022-09-23T03:07:44.009Z,83
2022-09-23T03:11:09.380Z,83
2022-09-23T03:14:34.740Z,82
2022-09-23T03:18:00.121Z,83
2022-09-23T03:21:25.522Z,83
2022-09-23T03:24:53.973Z,82
2022-09-23T03:28:16.248Z,82
2022-09-23T03:31:41.641Z,82
2022-09-23T03:35:06.993Z,82
2022-09-23T03:38:32.414Z,82
2022-09-23T03:41:57.776Z,83
2022-09-23T03:45:23.196Z,83
2022-09-23T03:48:48.472Z,82
2022-09-23T03:52:13.818Z,82
2022-09-23T03:55:39.140Z,82
2022-09-23T03:59:04.514Z,82
2022-09-23T04:02:29.929Z,83
2022-09-23T04:05:55.217Z,82
2022-09-23T04:09:20.580Z,82
2022-09-23T04:12:45.948Z,82
2022-09-23T04:16:11.300Z,83
2022-09-23T04:19:36.617Z,82
2022-09-23T04:23:01.962Z,82
2022-09-23T04:26:27.317Z,82
2022-09-23T04:29:52.669Z,82
2022-09-23T04:33:18.078Z,82
2022-09-23T04:36:43.351Z,83
2022-09-23T04:40:08.813Z,82
2022-09-23T04:43:34.112Z,82
2022-09-23T04:46:59.561Z,82
2022-09-23T04:50:24.894Z,82
2022-09-23T04:53:50.281Z,82
2022-09-23T04:57:15.649Z,83
2022-09-23T05:00:40.961Z,83
2022-09-23T05:04:06.290Z,83
2022-09-23T05:07:31.712Z,83
2022-09-23T05:10:57.096Z,83
2022-09-23T05:14:22.481Z,83
2022-09-23T05:17:47.808Z,83
2022-09-23T05:21:13.172Z,83
2022-09-23T05:24:38.555Z,83
2022-09-23T05:28:03.919Z,84
2022-09-23T05:31:29.375Z,84
2022-09-23T05:34:54.698Z,84
2022-09-23T05:38:20.052Z,84
2022-09-23T05:41:45.458Z,84
2022-09-23T05:45:10.858Z,84
2022-09-23T05:48:36.249Z,84
2022-09-23T05:52:01.590Z,84
2022-09-23T05:55:26.964Z,84
2022-09-23T05:58:52.381Z,84
2022-09-23T06:02:17.774Z,84
2022-09-23T06:05:43.059Z,84
2022-09-23T06:09:08.512Z,84
2022-09-23T06:12:33.816Z,84
2022-09-23T06:15:59.234Z,84
2022-09-23T06:19:24.496Z,84
2022-09-23T06:22:53.093Z,84
2022-09-23T06:26:15.196Z,84
2022-09-23T06:29:40.540Z,85
2022-09-23T06:33:05.911Z,84
2022-09-23T06:36:41.792Z,84
2022-09-23T06:39:56.615Z,84
2022-09-23T06:43:21.919Z,84
2022-09-23T06:46:47.327Z,84
2022-09-23T06:50:12.593Z,83
2022-09-23T06:53:37.933Z,83
2022-09-23T06:57:03.320Z,83
2022-09-23T07:00:28.741Z,83
2022-09-23T07:03:54.060Z,82
2022-09-23T07:07:19.456Z,82
2022-09-23T07:10:44.799Z,83
2022-09-23T07:14:10.149Z,82
2022-09-23T07:17:35.494Z,82
2022-09-23T07:21:00.828Z,82
2022-09-23T07:24:26.205Z,82
2022-09-23T07:27:51.499Z,83
2022-09-23T07:31:21.861Z,83
2022-09-23T07:34:42.267Z,83
2022-09-23T07:38:07.610Z,83
2022-09-23T07:41:32.964Z,83
2022-09-23T07:44:58.338Z,81
2022-09-23T07:48:23.749Z,80
2022-09-23T07:51:49.092Z,81
2022-09-23T07:55:17.633Z,79
2022-09-23T07:58:39.811Z,80
2022-09-23T08:02:05.135Z,80
2022-09-23T08:05:30.472Z,80
2022-09-23T08:08:55.859Z,79
2022-09-23T08:12:21.232Z,78
2022-09-23T08:15:46.643Z,77
2022-09-23T08:19:11.888Z,77
2022-09-23T08:22:37.243Z,76
2022-09-23T08:26:02.607Z,75
2022-09-23T08:29:27.949Z,76
2022-09-23T08:32:53.347Z,75
2022-09-23T08:36:18.643Z,74
2022-09-23T08:39:43.969Z,73
2022-09-23T08:43:09.286Z,74
2022-09-23T08:46:34.697Z,73
2022-09-23T08:50:00.033Z,74
2022-09-23T08:53:25.378Z,72
2022-09-23T08:56:50.693Z,73
2022-09-23T09:00:15.995Z,71
2022-09-23T09:03:41.386Z,72
2022-09-23T09:07:24.891Z,73
2022-09-23T09:10:32.070Z,69
2022-09-23T09:13:57.448Z,70
2022-09-23T09:17:22.826Z,69
2022-09-23T09:20:48.152Z,69
2022-09-23T09:24:13.522Z,68
2022-09-23T09:27:38.867Z,69
2022-09-23T09:31:04.273Z,68
2022-09-23T09:34:29.574Z,66
2022-09-23T09:37:54.923Z,66
2022-09-23T09:41:20.301Z,65
2022-09-23T09:44:45.613Z,66
2022-09-23T09:48:10.946Z,66
2022-09-23T09:51:36.315Z,66
2022-09-23T09:55:01.618Z,67
2022-09-23T09:58:27.029Z,65
2022-09-23T10:01:52.415Z,68
2022-09-23T10:05:17.753Z,66
2022-09-23T10:08:43.100Z,64
2022-09-23T10:12:08.488Z,67
2022-09-23T10:15:33.843Z,64
2022-09-23T10:18:59.229Z,64
2022-09-23T10:22:24.566Z,65
2022-09-23T10:25:49.928Z,65
2022-09-23T10:29:15.304Z,62
2022-09-23T10:32:40.773Z,62
2022-09-23T10:36:07.011Z,62
2022-09-23T10:39:32.451Z,59
2022-09-23T10:42:57.921Z,62
2022-09-23T10:46:23.361Z,60
2022-09-23T10:49:48.945Z,61
2022-09-23T10:53:14.397Z,59
2022-09-23T10:56:39.818Z,62
2022-09-23T11:00:05.261Z,58
2022-09-23T11:03:30.722Z,61
2022-09-23T11:06:56.202Z,56
2022-09-23T11:10:42.178Z,58
2022-09-23T11:13:52.207Z,60
2022-09-23T11:17:14.214Z,57
2022-09-23T11:20:39.676Z,59
2022-09-23T11:24:05.154Z,56
2022-09-23T11:27:30.619Z,59
2022-09-23T11:30:56.096Z,58
2022-09-23T11:34:21.643Z,57
2022-09-23T11:37:46.911Z,56
2022-09-23T11:41:12.352Z,55
2022-09-23T11:44:37.748Z,58
2022-09-23T11:48:03.213Z,56
2022-09-23T11:51:28.681Z,59
2022-09-23T11:54:54.141Z,54
2022-09-23T11:58:25.456Z,56
2022-09-23T12:01:45.748Z,55
2022-09-23T12:05:10.618Z,55
2022-09-23T12:08:35.950Z,57
2022-09-23T12:12:01.407Z,57
2022-09-23T12:15:26.913Z,56
2022-09-23T12:18:52.344Z,53
2022-09-23T12:22:17.911Z,52
2022-09-23T12:25:52.919Z,55
2022-09-23T12:29:21.940Z,54
2022-09-23T12:32:47.483Z,54
2022-09-23T12:36:12.915Z,57
2022-09-23T12:39:38.457Z,56
2022-09-23T12:43:03.892Z,52
2022-09-23T12:46:30.549Z,53
2022-09-23T12:49:55.952Z,53
2022-09-23T12:53:21.322Z,53
2022-09-23T12:56:46.822Z,56
2022-09-23T13:00:12.303Z,53
2022-09-23T13:03:37.743Z,54
2022-09-23T13:07:03.275Z,53
2022-09-23T13:10:28.834Z,54
2022-09-23T13:13:54.407Z,53
2022-09-23T13:17:20.030Z,53
2022-09-23T13:20:45.517Z,54
2022-09-23T13:24:10.995Z,53
2022-09-23T13:27:36.386Z,53
2022-09-23T13:31:01.862Z,53
2022-09-23T13:34:27.332Z,52
2022-09-23T13:37:52.819Z,53
2022-09-23T13:41:18.359Z,57
2022-09-23T13:44:44.069Z,52
2022-09-23T13:48:09.522Z,53
2022-09-23T13:51:34.981Z,54
2022-09-23T13:55:00.429Z,54
2022-09-23T13:58:25.870Z,54
2022-09-23T14:01:51.324Z,56
2022-09-23T14:05:16.722Z,57
2022-09-23T14:08:43.799Z,55
2022-09-23T14:12:10.224Z,53
2022-09-23T14:15:35.885Z,55
2022-09-23T14:19:01.329Z,57
2022-09-23T14:22:26.719Z,57
2022-09-23T14:25:52.198Z,57
2022-09-23T14:29:19.251Z,59
2022-09-23T15:05:05.214Z,59
2022-09-23T15:08:30.587Z,60
2022-09-23T15:11:55.932Z,58
2022-09-23T15:15:21.277Z,59
2022-09-23T15:18:46.618Z,58
2022-09-23T15:22:11.979Z,57
2022-09-23T15:25:37.265Z,57
2022-09-23T15:29:02.596Z,59
2022-09-23T15:32:27.928Z,57
2022-09-23T15:35:53.229Z,61
2022-09-23T15:39:18.588Z,61
2022-09-23T15:42:43.912Z,59
2022-09-23T15:46:09.313Z,61
2022-09-23T15:49:34.583Z,60
2022-09-23T15:52:59.975Z,62
2022-09-23T15:56:25.925Z,62
2022-09-23T15:59:51.257Z,61
2022-09-23T16:03:16.667Z,62
2022-09-23T16:06:42.853Z,60
2022-09-23T16:10:08.218Z,62
2022-09-23T16:13:33.594Z,66
2022-09-23T16:16:58.912Z,68
2022-09-23T16:20:24.243Z,68
2022-09-23T16:23:49.558Z,70
2022-09-23T16:27:14.908Z,69
2022-09-23T16:30:40.256Z,70
2022-09-23T16:34:05.567Z,71
2022-09-23T16:37:30.907Z,72
2022-09-23T16:40:56.398Z,71
2022-09-23T16:44:21.709Z,70
2022-09-23T16:47:47.106Z,72
2022-09-23T16:51:12.517Z,72
2022-09-23T16:54:37.826Z,73
2022-09-23T16:58:03.183Z,73
2022-09-23T17:01:28.553Z,75
2022-09-23T17:04:53.891Z,75
2022-09-23T17:08:19.151Z,75
2022-09-23T17:11:44.513Z,77
2022-09-23T17:15:09.923Z,76
2022-09-23T17:18:35.214Z,76
2022-09-23T17:22:00.617Z,77
2022-09-23T17:25:25.957Z,75
2022-09-23T17:28:51.280Z,75
2022-09-23T17:32:16.617Z,76
2022-09-23T17:35:42.041Z,76
2022-09-23T17:39:07.493Z,76
2022-09-23T17:42:32.721Z,77
2022-09-23T17:45:58.082Z,77
2022-09-23T17:49:23.486Z,77
2022-09-23T17:52:48.781Z,76
2022-09-23T17:56:14.194Z,76
2022-09-23T17:59:39.588Z,77
2022-09-23T18:03:04.941Z,78
2022-09-23T18:06:30.293Z,78
2022-09-23T18:09:55.655Z,76
2022-09-23T18:13:21.012Z,76
2022-09-23T18:16:46.372Z,77
2022-09-23T18:20:11.751Z,76
2022-09-23T18:23:37.090Z,77
2022-09-23T18:27:02.462Z,76
2022-09-23T18:30:27.829Z,77
2022-09-23T18:33:53.190Z,77
2022-09-23T18:37:18.504Z,77
2022-09-23T18:40:43.865Z,76
2022-09-23T18:44:09.277Z,77
2022-09-23T18:47:34.570Z,76
2022-09-23T18:50:59.853Z,76
2022-09-23T18:54:25.203Z,77
2022-09-23T18:57:51.095Z,77
2022-09-23T19:01:16.028Z,77
2022-09-23T19:04:41.489Z,77
2022-09-23T19:08:06.695Z,77
2022-09-23T19:11:32.036Z,78
2022-09-23T19:14:57.434Z,78
2022-09-23T19:18:22.794Z,78
2022-09-23T19:21:48.129Z,78
2022-09-23T19:25:13.495Z,78
2022-09-23T19:28:38.831Z,78
2022-09-23T19:32:04.496Z,78
2022-09-23T19:35:29.806Z,78
2022-09-23T19:38:55.218Z,78
2022-09-23T19:42:20.640Z,78
2022-09-23T19:45:45.955Z,79
2022-09-23T19:49:11.329Z,77
2022-09-23T19:52:36.742Z,78
2022-09-23T19:56:02.151Z,78
2022-09-23T19:59:27.548Z,78
2022-09-23T20:02:52.853Z,78
2022-09-23T20:06:18.190Z,79
2022-09-23T20:09:43.597Z,79
2022-09-23T20:13:08.947Z,78
2022-09-23T20:16:34.449Z,78
2022-09-23T20:19:59.738Z,77
2022-09-23T20:23:25.118Z,77
2022-09-23T20:26:50.419Z,77
2022-09-23T20:30:15.769Z,77
2022-09-23T20:33:41.154Z,78
2022-09-23T20:37:06.566Z,78
2022-09-23T20:40:31.959Z,78
2022-09-23T20:43:57.267Z,77
2022-09-23T20:47:22.672Z,78
2022-09-23T20:50:48.009Z,76
2022-09-23T20:54:13.369Z,77
2022-09-23T20:57:38.714Z,77
2022-09-23T21:01:04.166Z,77
2022-09-23T21:04:29.421Z,78
2022-09-23T21:07:54.764Z,76
2022-09-23T21:11:20.108Z,76
2022-09-23T21:14:45.424Z,75
2022-09-23T21:18:14.595Z,75
2022-09-23T21:21:36.210Z,78
2022-09-23T21:25:26.756Z,78
2022-09-23T21:28:26.985Z,79
2022-09-23T21:31:52.397Z,79
2022-09-23T21:35:17.633Z,80
2022-09-23T21:38:43.084Z,79
2022-09-23T21:42:08.655Z,78
2022-09-23T21:45:34.104Z,77
2022-09-23T21:48:59.555Z,76
2022-09-23T21:52:25.029Z,77
2022-09-23T21:55:50.486Z,78
2022-09-23T21:59:15.925Z,78
2022-09-23T22:02:41.389Z,79
2022-09-23T22:06:06.914Z,79
2022-09-23T22:09:32.301Z,79
2022-09-23T22:12:57.789Z,79
2022-09-23T22:16:23.256Z,77
2022-09-23T22:19:48.708Z,77
2022-09-23T22:23:14.962Z,78
2022-09-23T22:26:40.436Z,77
2022-09-23T22:30:05.909Z,78
2022-09-23T22:33:31.329Z,77
2022-09-23T22:36:56.809Z,77
2022-09-23T22:40:22.422Z,77
2022-09-23T22:43:47.814Z,77
2022-09-23T22:47:13.358Z,77
2022-09-23T22:50:38.776Z,76
2022-09-23T22:54:04.362Z,77
2022-09-23T22:57:29.800Z,77
2022-09-23T23:00:55.239Z,77
2022-09-23T23:04:20.751Z,77
2022-09-23T23:07:46.233Z,76
2022-09-23T23:11:11.749Z,77
2022-09-23T23:14:37.173Z,76
2022-09-23T23:18:02.637Z,76
2022-09-23T23:21:28.116Z,74
2022-09-23T23:24:53.623Z,75
2022-09-23T23:28:19.015Z,74
2022-09-23T23:31:44.519Z,74
2022-09-23T23:35:09.998Z,74
2022-09-23T23:38:35.462Z,75
2022-09-23T23:42:00.876Z,75
2022-09-23T23:45:26.326Z,75
2022-09-23T23:48:51.798Z,76
2022-09-23T23:52:17.277Z,74
2022-09-23T23:55:42.772Z,74
2022-09-23T23:59:08.239Z,76
